createdAt,value
2018-10-12T12:52:09.660Z,99.90
2018-10-12T12:54:38.190Z,90.70
2018-10-12T12:57:06.637Z,87.00
2018-10-12T12:59:35.184Z,82.30
2018-10-12T13:02:03.738Z,73.20
2018-10-12T13:04:32.244Z,67.10
2018-10-12T13:07:00.743Z,61.50
2018-10-12T13:09:29.054Z,57.00
2018-10-12T13:11:57.405Z,52.80
2018-10-12T13:14:25.713Z,50.60
2018-10-12T13:16:54.239Z,48.80
2018-10-12T13:19:22.582Z,46.50
2018-10-12T13:21:51.171Z,45.40
2018-10-12T13:24:19.686Z,43.60
2018-10-12T13:26:48.305Z,43.10
2018-10-12T13:29:16.766Z,42.40
2018-10-12T13:31:45.129Z,41.40
2018-10-12T13:34:13.405Z,40.70
2018-10-12T13:36:41.699Z,40.10
2018-10-12T13:39:11.874Z,39.10
2018-10-12T13:41:40.398Z,38.80
2018-10-12T13:44:09.673Z,38.50
2018-10-12T13:46:38.409Z,38.20
2018-10-12T13:49:07.111Z,37.40
2018-10-12T13:51:35.509Z,37.10
2018-10-12T13:54:03.838Z,36.30
2018-10-12T13:56:32.694Z,35.80
2018-10-12T13:59:01.076Z,35.40
2018-10-12T14:01:29.751Z,35.10
2018-10-12T14:03:58.419Z,34.70
2018-10-12T14:06:26.866Z,34.00
2018-10-12T14:08:55.186Z,33.50
2018-10-12T14:11:23.507Z,33.70
2018-10-12T14:13:52.170Z,33.70
2018-10-12T14:16:20.611Z,34.10
2018-10-12T14:18:49.284Z,34.00
2018-10-12T14:21:17.474Z,33.70
2018-10-12T14:23:45.790Z,33.50
2018-10-12T14:26:14.406Z,33.20
2018-10-12T14:28:42.762Z,32.90
2018-10-12T14:31:11.194Z,32.50
2018-10-12T14:33:39.790Z,32.60
2018-10-12T14:36:08.291Z,32.60
2018-10-12T14:38:36.735Z,32.70
2018-10-12T14:41:05.103Z,32.60
2018-10-12T14:43:33.646Z,32.40
2018-10-12T14:46:01.959Z,33.40
2018-10-12T14:48:30.243Z,35.20
2018-10-12T14:50:58.532Z,37.40
2018-10-12T14:53:26.903Z,39.40
2018-10-12T14:55:55.162Z,41.00
2018-10-12T14:58:23.502Z,42.40
2018-10-12T15:00:51.830Z,43.50
2018-10-12T15:03:20.140Z,44.90
2018-10-12T15:05:48.445Z,45.40
2018-10-12T15:08:16.710Z,46.10
2018-10-12T15:10:45.015Z,46.40
2018-10-12T15:13:13.283Z,47.50
2018-10-12T15:15:41.717Z,48.20
2018-10-12T15:18:10.120Z,48.90
